Time;durP1;ratioP1;P1;durP2;ratioP2;P2;SDS_P1;SDS_P2;PMS_P1;PMS_P2;Temp;Humidity;BMP_temperature;BMP_pressure;BME280_temperature;BME280_humidity;BME280_pressure;Samples;Min_cycle;Max_cycle;Signal;HPM_P1;HPM_P2
2022/08/06 00:01:06;;;;;;;5.25;0.88;;;;;;;;;;5261131;28;20087;-69
2022/08/06 00:03:37;;;;;;;3.95;0.50;;;;;;;;;;5260677;28;20278;-69
2022/08/06 00:06:08;;;;;;;5.28;0.50;;;;;;;;;;5261106;28;20482;-69
2022/08/06 00:08:40;;;;;;;4.27;0.53;;;;;;;;;;5260117;28;20306;-68
2022/08/06 00:11:11;;;;;;;7.23;0.50;;;;;;;;;;5261038;28;20839;-68
2022/08/06 00:13:42;;;;;;;7.75;0.75;;;;;;;;;;5259901;28;20667;-68
2022/08/06 00:16:13;;;;;;;4.65;0.50;;;;;;;;;;5260365;28;20333;-69
2022/08/06 00:18:44;;;;;;;5.40;0.70;;;;;;;;;;5260528;28;20024;-69
2022/08/06 00:21:16;;;;;;;3.47;0.63;;;;;;;;;;5260124;28;20615;-69
2022/08/06 00:23:47;;;;;;;4.22;1.08;;;;;;;;;;5260432;28;20625;-69
2022/08/06 00:26:18;;;;;;;6.78;0.60;;;;;;;;;;5260846;28;20021;-69
2022/08/06 00:28:49;;;;;;;5.10;0.88;;;;;;;;;;5260009;28;20100;-69
2022/08/06 00:31:21;;;;;;;6.53;1.08;;;;;;;;;;5260110;28;20040;-69
2022/08/06 00:33:52;;;;;;;7.53;1.23;;;;;;;;;;5260579;28;20020;-68
2022/08/06 00:36:24;;;;;;;3.60;0.65;;;;;;;;;;5259552;28;20454;-71
2022/08/06 00:38:56;;;;;;;6.60;0.82;;;;;;;;;;5261095;28;20044;-68
2022/08/06 00:41:28;;;;;;;7.32;0.80;;;;;;;;;;5259695;28;20045;-69
2022/08/06 00:44:00;;;;;;;4.88;0.70;;;;;;;;;;5260065;28;20025;-69
2022/08/06 00:46:31;;;;;;;5.18;0.70;;;;;;;;;;5260077;28;20539;-69
2022/08/06 00:49:02;;;;;;;4.32;0.75;;;;;;;;;;5260001;28;20074;-69
2022/08/06 00:51:34;;;;;;;7.38;0.77;;;;;;;;;;5259858;28;20027;-69
2022/08/06 00:54:06;;;;;;;5.00;1.17;;;;;;;;;;5260492;28;20017;-69
2022/08/06 00:56:37;;;;;;;6.63;0.70;;;;;;;;;;5258990;28;20932;-69
2022/08/06 00:59:08;;;;;;;6.65;0.70;;;;;;;;;;5260213;28;20049;-70
2022/08/06 01:01:39;;;;;;;3.42;0.70;;;;;;;;;;5260780;28;20027;-69
2022/08/06 01:04:10;;;;;;;6.90;1.10;;;;;;;;;;5259685;28;20025;-69
2022/08/06 01:06:41;;;;;;;7.40;0.80;;;;;;;;;;5260258;28;20073;-70
2022/08/06 01:09:13;;;;;;;7.68;1.33;;;;;;;;;;5259547;28;20039;-70
2022/08/06 01:11:44;;;;;;;4.40;0.90;;;;;;;;;;5258788;28;20078;-69
2022/08/06 01:14:15;;;;;;;4.53;0.70;;;;;;;;;;5259982;28;20040;-69
2022/08/06 01:16:48;;;;;;;8.50;0.90;;;;;;;;;;5259187;28;20017;-69
2022/08/06 01:19:22;;;;;;;5.82;1.02;;;;;;;;;;5258669;28;20288;-69
2022/08/06 01:22:07;;;;;;;8.63;1.10;;;;;;;;;;5259642;28;20020;-69
2022/08/06 01:24:51;;;;;;;8.25;0.90;;;;;;;;;;5258300;28;20024;-69
2022/08/06 01:27:22;;;;;;;6.85;0.75;;;;;;;;;;5258977;28;20029;-70
2022/08/06 01:29:56;;;;;;;5.15;0.85;;;;;;;;;;5259224;28;20029;-69
2022/08/06 01:32:30;;;;;;;7.13;1.08;;;;;;;;;;5258176;28;20262;-69
2022/08/06 01:35:03;;;;;;;7.13;1.23;;;;;;;;;;5259803;28;20419;-70
2022/08/06 01:37:56;;;;;;;6.85;1.40;;;;;;;;;;5258655;28;20025;-70
2022/08/06 01:40:31;;;;;;;3.25;0.70;;;;;;;;;;5258276;28;20025;-70
2022/08/06 01:43:05;;;;;;;6.45;0.88;;;;;;;;;;5259304;28;20072;-69
2022/08/06 01:45:38;;;;;;;5.53;0.90;;;;;;;;;;5258273;28;20040;-69
2022/08/06 01:48:11;;;;;;;5.32;1.10;;;;;;;;;;5259589;28;20108;-70
2022/08/06 01:50:45;;;;;;;5.20;0.80;;;;;;;;;;5258689;28;20036;-69
2022/08/06 01:53:18;;;;;;;8.80;1.30;;;;;;;;;;5258785;28;20363;-69
2022/08/06 01:55:52;;;;;;;4.65;1.10;;;;;;;;;;5259369;28;20024;-69
2022/08/06 01:58:29;;;;;;;5.80;0.63;;;;;;;;;;5258719;28;20475;-70
2022/08/06 02:01:02;;;;;;;12.95;1.67;;;;;;;;;;5258987;28;20028;-69
2022/08/06 02:03:35;;;;;;;5.68;0.90;;;;;;;;;;5258529;28;20070;-69
2022/08/06 02:06:08;;;;;;;2.97;1.02;;;;;;;;;;5258838;28;20322;-69
2022/08/06 02:08:39;;;;;;;5.25;1.02;;;;;;;;;;5257602;28;20854;-70
2022/08/06 02:11:11;;;;;;;4.45;0.75;;;;;;;;;;5258395;28;20112;-69
2022/08/06 02:13:43;;;;;;;7.40;0.88;;;;;;;;;;5257422;28;20051;-69
2022/08/06 02:16:15;;;;;;;4.22;1.05;;;;;;;;;;5258441;28;20024;-69
2022/08/06 02:18:47;;;;;;;8.32;1.08;;;;;;;;;;5257905;28;20131;-69
2022/08/06 02:21:20;;;;;;;5.50;1.17;;;;;;;;;;5258133;28;20017;-69
2022/08/06 02:23:51;;;;;;;6.38;1.00;;;;;;;;;;5258518;28;20028;-69
2022/08/06 02:26:24;;;;;;;5.28;0.90;;;;;;;;;;5257670;28;20383;-69
2022/08/06 02:28:56;;;;;;;5.38;1.13;;;;;;;;;;5257894;28;20020;-69
2022/08/06 02:31:28;;;;;;;4.35;0.82;;;;;;;;;;5257968;28;20099;-69
2022/08/06 02:33:59;;;;;;;7.35;1.10;;;;;;;;;;5258719;28;20029;-69
2022/08/06 02:36:33;;;;;;;8.95;1.55;;;;;;;;;;5257398;28;20028;-69
2022/08/06 02:39:20;;;;;;;6.25;1.50;;;;;;;;;;5262210;28;20029;-69
2022/08/06 02:41:51;;;;;;;6.28;1.67;;;;;;;;;;5261322;28;20053;-69
2022/08/06 02:44:42;;;;;;;8.57;1.30;;;;;;;;;;5261627;28;20021;-69
2022/08/06 02:47:25;;;;;;;4.72;1.20;;;;;;;;;;5261712;28;20052;-69
2022/08/06 02:49:59;;;;;;;5.57;1.00;;;;;;;;;;5261530;28;20032;-69
2022/08/06 02:52:35;;;;;;;6.97;1.98;;;;;;;;;;5261342;28;20115;-69
2022/08/06 02:55:11;;;;;;;6.63;1.38;;;;;;;;;;5261626;28;20017;-69
2022/08/06 02:57:47;;;;;;;6.95;1.42;;;;;;;;;;5260899;28;20032;-69
2022/08/06 03:00:19;;;;;;;5.43;1.30;;;;;;;;;;5261762;28;20044;-70
2022/08/06 03:02:54;;;;;;;4.63;1.67;;;;;;;;;;5261359;28;20013;-69
2022/08/06 03:05:25;;;;;;;6.75;1.38;;;;;;;;;;5260920;28;20029;-70
2022/08/06 03:07:57;;;;;;;3.35;1.25;;;;;;;;;;5261569;28;20677;-69
2022/08/06 03:10:29;;;;;;;6.15;1.30;;;;;;;;;;5260278;28;20128;-70
2022/08/06 03:13:00;;;;;;;4.90;1.23;;;;;;;;;;5261761;28;20114;-70
2022/08/06 03:15:33;;;;;;;9.10;1.70;;;;;;;;;;5260810;28;20041;-70
2022/08/06 03:18:05;;;;;;;8.35;1.27;;;;;;;;;;5261039;28;20485;-70
2022/08/06 03:20:38;;;;;;;6.45;1.10;;;;;;;;;;5260716;28;20013;-70
2022/08/06 03:23:09;;;;;;;5.30;1.48;;;;;;;;;;5261226;28;20099;-70
2022/08/06 03:25:42;;;;;;;5.43;1.40;;;;;;;;;;5260180;28;20578;-70
2022/08/06 03:28:14;;;;;;;6.18;1.20;;;;;;;;;;5261335;28;20025;-70
2022/08/06 03:30:45;;;;;;;6.55;1.92;;;;;;;;;;5260266;28;20104;-70
2022/08/06 03:33:17;;;;;;;10.25;1.65;;;;;;;;;;5260551;28;20448;-70
2022/08/06 03:35:49;;;;;;;9.07;1.17;;;;;;;;;;5260676;28;20020;-70
2022/08/06 03:38:22;;;;;;;5.45;1.55;;;;;;;;;;5260015;28;20017;-70
2022/08/06 03:40:54;;;;;;;5.43;1.33;;;;;;;;;;5261144;28;20013;-70
2022/08/06 03:43:25;;;;;;;3.65;0.80;;;;;;;;;;5260068;28;20059;-70
2022/08/06 03:45:58;;;;;;;5.75;1.10;;;;;;;;;;5260076;28;20041;-70
2022/08/06 03:48:32;;;;;;;3.97;1.20;;;;;;;;;;5260386;28;20048;-71
2022/08/06 03:51:05;;;;;;;6.20;1.33;;;;;;;;;;5260677;28;20083;-70
2022/08/06 03:53:37;;;;;;;6.18;0.80;;;;;;;;;;5259497;28;20025;-70
2022/08/06 03:56:10;;;;;;;3.47;0.90;;;;;;;;;;5260652;28;20013;-70
2022/08/06 03:58:43;;;;;;;4.45;0.90;;;;;;;;;;5259725;28;20013;-69
2022/08/06 04:01:17;;;;;;;3.65;0.70;;;;;;;;;;5259963;28;20477;-70
2022/08/06 04:03:48;;;;;;;3.13;0.90;;;;;;;;;;5259624;28;20024;-69
2022/08/06 04:06:21;;;;;;;4.45;0.82;;;;;;;;;;5259183;28;20452;-70
2022/08/06 04:08:53;;;;;;;5.00;0.82;;;;;;;;;;5260258;28;20071;-69
2022/08/06 04:11:24;;;;;;;4.28;1.50;;;;;;;;;;5259609;28;20498;-69
2022/08/06 04:13:57;;;;;;;5.80;1.25;;;;;;;;;;5259626;28;20064;-69
2022/08/06 04:16:28;;;;;;;4.80;1.13;;;;;;;;;;5259860;28;20123;-69
2022/08/06 04:18:59;;;;;;;6.78;1.55;;;;;;;;;;5259540;28;20096;-70
2022/08/06 04:21:30;;;;;;;2.67;0.95;;;;;;;;;;5258608;28;20021;-70
2022/08/06 04:24:02;;;;;;;2.25;0.93;;;;;;;;;;5259999;28;20570;-70
2022/08/06 04:26:34;;;;;;;8.55;1.33;;;;;;;;;;5259030;28;20020;-70
2022/08/06 04:29:06;;;;;;;5.35;1.00;;;;;;;;;;5259293;28;20021;-70
2022/08/06 04:31:38;;;;;;;5.60;1.15;;;;;;;;;;5258914;28;20024;-70
2022/08/06 04:34:10;;;;;;;3.85;1.02;;;;;;;;;;5259117;28;20020;-70
2022/08/06 04:36:41;;;;;;;5.15;0.90;;;;;;;;;;5259002;28;20100;-70
2022/08/06 04:39:13;;;;;;;7.55;1.27;;;;;;;;;;5259409;28;20089;-70
2022/08/06 04:41:44;;;;;;;5.72;1.55;;;;;;;;;;5258348;28;20041;-70
2022/08/06 04:44:15;;;;;;;5.80;1.42;;;;;;;;;;5259258;28;20092;-69
2022/08/06 04:46:48;;;;;;;3.30;0.95;;;;;;;;;;5258789;28;20024;-70
2022/08/06 04:49:19;;;;;;;4.45;1.05;;;;;;;;;;5258318;28;20030;-70
2022/08/06 04:51:50;;;;;;;5.90;1.40;;;;;;;;;;5259174;28;20021;-71
2022/08/06 04:54:21;;;;;;;10.40;1.38;;;;;;;;;;5258494;28;20051;-69
2022/08/06 04:56:53;;;;;;;7.28;2.13;;;;;;;;;;5258760;28;20263;-69
2022/08/06 04:59:24;;;;;;;4.13;1.43;;;;;;;;;;5258321;28;20017;-70
2022/08/06 05:01:55;;;;;;;5.65;1.30;;;;;;;;;;5258707;28;20275;-70
2022/08/06 05:04:29;;;;;;;6.83;1.50;;;;;;;;;;5257945;28;20515;-70
2022/08/06 05:07:00;;;;;;;5.20;1.42;;;;;;;;;;5258792;28;20314;-71
2022/08/06 05:09:32;;;;;;;5.28;1.25;;;;;;;;;;5257623;28;20087;-69
2022/08/06 05:12:05;;;;;;;4.70;1.08;;;;;;;;;;5259298;28;20417;-70
2022/08/06 05:14:42;;;;;;;6.80;1.58;;;;;;;;;;5257954;28;20024;-70
2022/08/06 05:17:15;;;;;;;5.13;1.05;;;;;;;;;;5258690;28;20025;-70
2022/08/06 05:19:49;;;;;;;7.18;1.60;;;;;;;;;;5258220;28;20483;-70
2022/08/06 05:22:22;;;;;;;5.00;1.33;;;;;;;;;;5258070;28;20162;-70
2022/08/06 05:24:53;;;;;;;7.32;1.42;;;;;;;;;;5258330;28;20029;-70
2022/08/06 05:27:24;;;;;;;6.43;1.00;;;;;;;;;;5258276;28;20028;-70
2022/08/06 05:29:55;;;;;;;8.30;1.52;;;;;;;;;;5258213;28;20112;-70
2022/08/06 05:32:27;;;;;;;4.78;1.23;;;;;;;;;;5257791;28;20111;-69
2022/08/06 05:34:58;;;;;;;6.03;1.20;;;;;;;;;;5258732;28;20265;-70
2022/08/06 05:37:29;;;;;;;6.00;1.33;;;;;;;;;;5257418;28;20029;-70
2022/08/06 05:40:00;;;;;;;8.17;1.40;;;;;;;;;;5258758;28;20252;-70
2022/08/06 05:42:31;;;;;;;10.67;1.60;;;;;;;;;;5257465;28;20304;-69
2022/08/06 05:45:02;;;;;;;10.20;1.48;;;;;;;;;;5258216;28;20275;-69
2022/08/06 05:47:37;;;;;;;4.25;1.65;;;;;;;;;;5257992;28;20033;-69
2022/08/06 05:50:09;;;;;;;7.97;1.30;;;;;;;;;;5258181;28;20379;-69
2022/08/06 05:52:40;;;;;;;6.05;1.38;;;;;;;;;;5257282;28;20021;-70
2022/08/06 05:55:16;;;;;;;6.40;1.42;;;;;;;;;;5258299;28;20013;-70
2022/08/06 05:57:50;;;;;;;11.63;1.55;;;;;;;;;;5257384;28;20263;-72
2022/08/06 06:00:22;;;;;;;5.63;1.20;;;;;;;;;;5257268;28;20017;-70
2022/08/06 06:02:54;;;;;;;10.23;1.42;;;;;;;;;;5258328;28;20462;-70
2022/08/06 06:05:26;;;;;;;7.03;1.83;;;;;;;;;;5258421;28;20028;-70
2022/08/06 06:07:57;;;;;;;10.77;1.30;;;;;;;;;;5258245;28;20335;-70
2022/08/06 06:10:28;;;;;;;7.72;1.35;;;;;;;;;;5257639;28;20037;-70
2022/08/06 06:13:01;;;;;;;7.38;1.42;;;;;;;;;;5260297;28;20012;-70
2022/08/06 06:15:35;;;;;;;6.40;1.25;;;;;;;;;;5261680;28;20139;-70
2022/08/06 06:18:10;;;;;;;6.10;1.30;;;;;;;;;;5262403;28;20021;-70
2022/08/06 06:20:49;;;;;;;8.80;1.40;;;;;;;;;;5261295;28;20120;-70
2022/08/06 06:23:25;;;;;;;5.63;1.63;;;;;;;;;;5261804;28;20017;-70
2022/08/06 06:26:17;;;;;;;7.25;1.38;;;;;;;;;;5262080;28;20065;-70
2022/08/06 06:28:48;;;;;;;5.35;1.00;;;;;;;;;;5261343;28;20021;-71
2022/08/06 06:31:35;;;;;;;6.85;1.25;;;;;;;;;;5261359;28;20036;-70
2022/08/06 06:34:12;;;;;;;6.07;1.10;;;;;;;;;;5261602;28;20021;-70
2022/08/06 06:36:50;;;;;;;4.18;1.27;;;;;;;;;;5261389;28;20025;-70
2022/08/06 06:39:25;;;;;;;6.63;1.10;;;;;;;;;;5261184;28;20029;-70
2022/08/06 06:42:05;;;;;;;10.30;1.67;;;;;;;;;;5261165;28;20502;-70
2022/08/06 06:44:39;;;;;;;7.68;1.00;;;;;;;;;;5261846;28;20025;-70
2022/08/06 06:47:15;;;;;;;7.32;0.75;;;;;;;;;;5261406;28;20028;-70
2022/08/06 06:49:49;;;;;;;8.13;0.80;;;;;;;;;;5260308;28;20060;-70
2022/08/06 06:52:20;;;;;;;7.63;1.05;;;;;;;;;;5260960;28;20035;-71
2022/08/06 06:54:53;;;;;;;7.00;1.10;;;;;;;;;;5260921;28;20020;-70
2022/08/06 06:57:31;;;;;;;7.28;0.90;;;;;;;;;;5261054;28;20416;-70
2022/08/06 07:00:04;;;;;;;6.88;0.90;;;;;;;;;;5261550;28;20440;-70
2022/08/06 07:02:37;;;;;;;5.47;0.70;;;;;;;;;;5260424;28;20375;-70
2022/08/06 07:05:09;;;;;;;8.40;0.80;;;;;;;;;;5261401;28;20021;-70
2022/08/06 07:07:42;;;;;;;1.98;0.60;;;;;;;;;;5260552;28;20057;-70
2022/08/06 07:10:14;;;;;;;6.28;0.50;;;;;;;;;;5260918;28;20029;-70
2022/08/06 07:12:45;;;;;;;7.28;0.60;;;;;;;;;;5260978;28;20049;-70
2022/08/06 07:15:19;;;;;;;8.65;1.00;;;;;;;;;;5261011;28;20051;-70
2022/08/06 07:17:50;;;;;;;6.45;0.47;;;;;;;;;;5260774;28;20035;-70
2022/08/06 07:20:26;;;;;;;10.15;0.50;;;;;;;;;;5260187;28;20100;-71
2022/08/06 07:22:59;;;;;;;2.75;0.28;;;;;;;;;;5260198;28;20032;-71
2022/08/06 07:25:33;;;;;;;4.10;0.22;;;;;;;;;;5260247;28;20431;-70
2022/08/06 07:28:06;;;;;;;3.70;0.30;;;;;;;;;;5260751;28;20029;-70
2022/08/06 07:30:37;;;;;;;5.57;0.30;;;;;;;;;;5259528;28;20057;-70
2022/08/06 07:33:12;;;;;;;3.78;0.68;;;;;;;;;;5260750;28;20048;-70
2022/08/06 07:35:44;;;;;;;1.67;0.10;;;;;;;;;;5260151;28;20059;-70
2022/08/06 07:38:17;;;;;;;3.20;0.20;;;;;;;;;;5260330;28;20471;-70
2022/08/06 07:40:52;;;;;;;4.25;0.32;;;;;;;;;;5260073;28;20487;-70
2022/08/06 07:43:29;;;;;;;6.47;0.45;;;;;;;;;;5259844;28;20506;-70
2022/08/06 07:46:03;;;;;;;4.05;0.20;;;;;;;;;;5260083;28;20021;-70
2022/08/06 07:48:38;;;;;;;5.38;0.30;;;;;;;;;;5260057;28;20370;-70
2022/08/06 07:51:10;;;;;;;1.25;0.28;;;;;;;;;;5259983;28;20039;-69
2022/08/06 07:53:41;;;;;;;4.00;0.30;;;;;;;;;;5259914;28;20013;-70
2022/08/06 07:56:13;;;;;;;6.75;0.30;;;;;;;;;;5254565;28;20482;-69
2022/08/06 07:58:44;;;;;;;4.70;0.40;;;;;;;;;;5258896;28;20021;-73
2022/08/06 08:01:16;;;;;;;3.95;0.30;;;;;;;;;;5260047;28;20487;-72
2022/08/06 08:06:37;;;;;;;2.25;0.30;;;;;;;;;;5259236;28;20388;-72
2022/08/06 08:09:15;;;;;;;4.22;0.32;;;;;;;;;;5259959;28;20017;-73
2022/08/06 08:11:47;;;;;;;4.97;0.55;;;;;;;;;;5258900;28;20033;-72
2022/08/06 08:14:20;;;;;;;3.72;0.28;;;;;;;;;;5259391;28;20120;-73
2022/08/06 08:16:51;;;;;;;2.63;0.25;;;;;;;;;;5259716;28;20388;-73
2022/08/06 08:19:30;;;;;;;4.22;0.20;;;;;;;;;;5259375;28;20020;-73
2022/08/06 08:22:05;;;;;;;1.77;0.20;;;;;;;;;;5259970;28;20028;-73
2022/08/06 08:24:37;;;;;;;3.33;0.20;;;;;;;;;;5259209;28;20357;-71
2022/08/06 08:27:10;;;;;;;3.30;0.30;;;;;;;;;;5259276;28;20031;-71
2022/08/06 08:29:41;;;;;;;1.20;0.20;;;;;;;;;;5259232;28;20024;-72
2022/08/06 08:32:13;;;;;;;3.63;0.20;;;;;;;;;;5259682;28;20024;-72
2022/08/06 08:34:44;;;;;;;3.80;0.30;;;;;;;;;;5257994;28;20013;-71
2022/08/06 08:37:15;;;;;;;4.60;0.30;;;;;;;;;;5259490;28;20100;-72
2022/08/06 08:39:46;;;;;;;2.42;0.20;;;;;;;;;;5258986;28;20270;-70
2022/08/06 08:42:19;;;;;;;4.57;0.25;;;;;;;;;;5258732;28;20044;-69
2022/08/06 08:44:51;;;;;;;2.97;0.35;;;;;;;;;;5259439;28;20490;-69
2022/08/06 08:47:22;;;;;;;2.95;0.20;;;;;;;;;;5258390;28;20013;-70
2022/08/06 08:49:55;;;;;;;5.22;0.20;;;;;;;;;;5259432;28;20033;-71
2022/08/06 08:52:28;;;;;;;1.85;0.15;;;;;;;;;;5257172;28;20021;-71
2022/08/06 08:55:01;;;;;;;1.33;0.13;;;;;;;;;;5256679;28;20052;-70
2022/08/06 08:57:33;;;;;;;2.88;0.28;;;;;;;;;;5256815;28;20477;-71
2022/08/06 09:00:06;;;;;;;2.63;0.10;;;;;;;;;;5258288;28;20036;-71
2022/08/06 09:02:38;;;;;;;1.17;0.05;;;;;;;;;;5257060;28;20052;-71
2022/08/06 09:05:10;;;;;;;2.90;0.10;;;;;;;;;;5259035;28;20016;-71
2022/08/06 09:07:41;;;;;;;1.88;0.30;;;;;;;;;;5258374;28;20071;-73
2022/08/06 09:10:12;;;;;;;5.53;0.10;;;;;;;;;;5258363;28;20028;-73
2022/08/06 09:12:44;;;;;;;1.17;0.20;;;;;;;;;;5258009;28;20166;-73
2022/08/06 09:15:16;;;;;;;2.53;0.20;;;;;;;;;;5258746;28;20764;-72
2022/08/06 09:17:48;;;;;;;3.65;0.20;;;;;;;;;;5257813;28;20021;-71
2022/08/06 09:20:19;;;;;;;2.85;0.40;;;;;;;;;;5258304;28;20028;-71
2022/08/06 09:22:52;;;;;;;1.30;0.10;;;;;;;;;;5258081;28;20048;-70
2022/08/06 09:25:40;;;;;;;3.28;0.15;;;;;;;;;;5257991;28;20020;-71
2022/08/06 09:28:25;;;;;;;1.30;0.10;;;;;;;;;;5258375;28;20383;-71
2022/08/06 09:31:08;;;;;;;1.85;0.10;;;;;;;;;;5258095;28;20029;-70
2022/08/06 09:33:42;;;;;;;2.70;0.20;;;;;;;;;;5257684;28;20033;-71
2022/08/06 09:36:16;;;;;;;1.52;0.20;;;;;;;;;;5258730;28;20092;-71
2022/08/06 09:38:51;;;;;;;5.13;0.10;;;;;;;;;;5257578;28;20101;-71
2022/08/06 09:41:24;;;;;;;2.58;0.20;;;;;;;;;;5257683;28;20020;-70
2022/08/06 09:43:56;;;;;;;2.30;0.20;;;;;;;;;;5257948;28;20021;-71
2022/08/06 09:46:43;;;;;;;3.53;0.20;;;;;;;;;;5259394;28;20352;-71
2022/08/06 09:49:15;;;;;;;2.08;0.10;;;;;;;;;;5262439;28;20162;-71
2022/08/06 09:51:46;;;;;;;2.67;0.20;;;;;;;;;;5261645;28;20033;-71
2022/08/06 09:54:18;;;;;;;1.75;0.17;;;;;;;;;;5262734;28;20023;-72
2022/08/06 09:56:57;;;;;;;4.22;0.15;;;;;;;;;;5262137;28;20025;-71
2022/08/06 09:59:28;;;;;;;1.77;0.20;;;;;;;;;;5261570;28;20516;-72
2022/08/06 10:01:59;;;;;;;3.00;0.20;;;;;;;;;;5262345;28;20025;-71
2022/08/06 10:04:30;;;;;;;2.33;0.10;;;;;;;;;;5261827;28;20024;-72
2022/08/06 10:07:01;;;;;;;2.50;0.20;;;;;;;;;;5261799;28;20029;-71
2022/08/06 10:09:33;;;;;;;1.50;0.17;;;;;;;;;;5261708;28;20014;-71
2022/08/06 10:12:17;;;;;;;1.02;0.10;;;;;;;;;;5261940;28;20075;-71
2022/08/06 10:14:49;;;;;;;3.20;0.20;;;;;;;;;;5261848;28;20383;-71
2022/08/06 10:17:22;;;;;;;1.08;0.40;;;;;;;;;;5261418;28;20037;-72
2022/08/06 10:20:23;;;;;;;0.95;0.10;;;;;;;;;;5261818;28;20024;-71
2022/08/06 10:22:56;;;;;;;2.10;0.10;;;;;;;;;;5244641;28;20341;-71
2022/08/06 10:25:29;;;;;;;1.35;0.20;;;;;;;;;;5261606;28;20411;-71
2022/08/06 10:28:01;;;;;;;1.42;0.10;;;;;;;;;;5261554;28;20017;-72
2022/08/06 10:30:33;;;;;;;1.27;0.10;;;;;;;;;;5261135;28;20536;-71
2022/08/06 10:33:10;;;;;;;1.35;0.20;;;;;;;;;;5261660;28;20091;-71
2022/08/06 10:35:42;;;;;;;3.88;0.13;;;;;;;;;;5261295;28;20021;-71
2022/08/06 10:38:15;;;;;;;1.70;0.10;;;;;;;;;;5261629;28;20063;-71
2022/08/06 10:40:48;;;;;;;2.50;0.20;;;;;;;;;;5260937;28;20480;-71
2022/08/06 10:43:20;;;;;;;0.90;0.20;;;;;;;;;;5261417;28;20491;-73
2022/08/06 10:45:51;;;;;;;1.77;0.13;;;;;;;;;;5261453;28;20017;-71
2022/08/06 10:48:23;;;;;;;3.50;0.10;;;;;;;;;;5260661;28;20456;-71
2022/08/06 10:50:55;;;;;;;0.75;0.10;;;;;;;;;;5261260;28;20395;-71
2022/08/06 10:53:26;;;;;;;1.38;0.10;;;;;;;;;;5261173;28;20013;-71
2022/08/06 10:55:59;;;;;;;0.82;0.10;;;;;;;;;;5260880;28;20029;-71
2022/08/06 10:58:32;;;;;;;2.85;0.10;;;;;;;;;;5260060;28;20519;-71
2022/08/06 11:01:12;;;;;;;0.55;0.10;;;;;;;;;;5260813;28;20056;-71
2022/08/06 11:04:01;;;;;;;3.08;0.10;;;;;;;;;;5260646;28;20021;-71
2022/08/06 11:06:42;;;;;;;1.45;0.10;;;;;;;;;;5260429;28;20251;-71
2022/08/06 11:09:22;;;;;;;3.17;0.10;;;;;;;;;;5260650;28;20044;-71
2022/08/06 11:11:56;;;;;;;0.75;0.10;;;;;;;;;;5260803;28;20151;-71
2022/08/06 11:14:28;;;;;;;1.10;0.10;;;;;;;;;;5260519;28;20934;-71
2022/08/06 11:16:59;;;;;;;1.20;0.15;;;;;;;;;;5260502;28;20021;-71
2022/08/06 11:19:44;;;;;;;1.75;0.10;;;;;;;;;;5260202;28;20029;-71
2022/08/06 11:22:31;;;;;;;0.90;0.10;;;;;;;;;;5260306;28;20021;-71
2022/08/06 11:25:03;;;;;;;0.85;0.10;;;;;;;;;;5261403;28;20101;-71
2022/08/06 11:27:47;;;;;;;0.95;0.10;;;;;;;;;;5259998;28;20035;-71
2022/08/06 11:30:19;;;;;;;1.38;0.20;;;;;;;;;;5259711;28;20190;-71
2022/08/06 11:32:51;;;;;;;1.65;0.13;;;;;;;;;;5260532;28;20094;-72
2022/08/06 11:35:43;;;;;;;1.50;0.20;;;;;;;;;;5259985;28;20032;-72
2022/08/06 11:38:15;;;;;;;1.33;0.10;;;;;;;;;;5259710;28;20017;-72
2022/08/06 11:40:56;;;;;;;1.48;0.10;;;;;;;;;;5259592;28;20159;-71
2022/08/06 11:43:40;;;;;;;1.67;0.10;;;;;;;;;;5259229;28;20801;-71
2022/08/06 11:46:28;;;;;;;1.58;0.10;;;;;;;;;;5260034;28;20037;-70
2022/08/06 11:48:59;;;;;;;1.33;0.10;;;;;;;;;;5259962;28;20456;-70
2022/08/06 11:51:36;;;;;;;1.63;0.17;;;;;;;;;;5259247;28;20126;-70
2022/08/06 11:54:08;;;;;;;1.45;0.10;;;;;;;;;;5259795;28;20082;-72
2022/08/06 11:56:58;;;;;;;2.15;0.10;;;;;;;;;;5259842;28;20033;-72
2022/08/06 11:59:45;;;;;;;2.70;0.10;;;;;;;;;;5258808;28;20028;-70
2022/08/06 12:02:37;;;;;;;0.82;0.10;;;;;;;;;;5259811;28;20035;-71
2022/08/06 12:05:28;;;;;;;0.85;0.22;;;;;;;;;;5259028;28;20036;-70
2022/08/06 12:08:18;;;;;;;1.52;0.10;;;;;;;;;;5245409;28;20041;-71
2022/08/06 12:11:08;;;;;;;0.88;0.10;;;;;;;;;;5258370;28;20491;-71
2022/08/06 12:13:40;;;;;;;0.63;0.10;;;;;;;;;;5258520;28;20602;-71
2022/08/06 12:16:44;;;;;;;1.75;0.10;;;;;;;;;;5259417;28;20021;-71
2022/08/06 12:19:15;;;;;;;0.93;0.10;;;;;;;;;;5214760;28;20082;-72
2022/08/06 12:21:51;;;;;;;1.95;0.10;;;;;;;;;;5259187;28;20428;-72
2022/08/06 12:24:23;;;;;;;1.10;0.10;;;;;;;;;;5258786;28;20025;-70
2022/08/06 12:26:54;;;;;;;1.13;0.10;;;;;;;;;;5259014;28;20017;-70
2022/08/06 12:29:29;;;;;;;1.75;0.10;;;;;;;;;;5258444;28;20020;-70
2022/08/06 12:32:00;;;;;;;0.40;0.03;;;;;;;;;;5259782;28;20037;-72
2022/08/06 12:34:31;;;;;;;0.68;0.10;;;;;;;;;;5258190;28;20019;-71
2022/08/06 12:37:03;;;;;;;1.95;0.10;;;;;;;;;;5258919;28;20021;-70
2022/08/06 12:42:30;;;;;;;2.50;0.10;;;;;;;;;;5258585;28;20056;-70
2022/08/06 12:45:02;;;;;;;0.68;0.10;;;;;;;;;;5258655;28;20396;-70
2022/08/06 12:47:33;;;;;;;1.20;0.08;;;;;;;;;;5257751;28;20470;-72
2022/08/06 12:50:17;;;;;;;1.00;0.20;;;;;;;;;;5259240;28;20128;-70
2022/08/06 12:53:01;;;;;;;1.13;0.20;;;;;;;;;;5259329;28;20021;-71
2022/08/06 12:55:41;;;;;;;0.95;0.20;;;;;;;;;;5257425;28;20021;-71
2022/08/06 12:58:15;;;;;;;2.15;0.10;;;;;;;;;;5258278;28;20017;-70
2022/08/06 13:00:48;;;;;;;1.30;0.10;;;;;;;;;;5257746;28;20013;-71
2022/08/06 13:03:21;;;;;;;1.33;0.10;;;;;;;;;;5257977;28;20464;-71
2022/08/06 13:05:53;;;;;;;0.90;0.10;;;;;;;;;;5258354;28;20100;-70
2022/08/06 13:08:25;;;;;;;1.13;0.10;;;;;;;;;;5256828;28;20028;-72
2022/08/06 13:10:57;;;;;;;0.93;0.35;;;;;;;;;;5258507;28;20210;-72
2022/08/06 13:13:46;;;;;;;0.97;0.30;;;;;;;;;;5257406;28;20100;-72
2022/08/06 13:16:18;;;;;;;0.88;0.10;;;;;;;;;;5257594;28;20320;-72
2022/08/06 13:19:03;;;;;;;0.98;0.10;;;;;;;;;;5257551;28;20020;-73
2022/08/06 13:21:36;;;;;;;3.00;0.20;;;;;;;;;;5258276;28;20020;-72
2022/08/06 13:24:07;;;;;;;1.45;0.10;;;;;;;;;;5258191;28;20103;-72
2022/08/06 13:26:49;;;;;;;1.17;0.10;;;;;;;;;;5257333;28;20034;-72
2022/08/06 13:29:22;;;;;;;3.22;0.10;;;;;;;;;;5256580;28;20013;-72
2022/08/06 13:32:01;;;;;;;1.83;0.10;;;;;;;;;;5259042;28;20036;-72
2022/08/06 13:34:51;;;;;;;0.35;0.13;;;;;;;;;;5257321;28;20021;-72
2022/08/06 13:37:45;;;;;;;2.50;0.20;;;;;;;;;;5256696;28;20021;-72
2022/08/06 13:40:19;;;;;;;3.22;0.17;;;;;;;;;;5257818;28;20445;-72
2022/08/06 13:42:51;;;;;;;0.80;0.10;;;;;;;;;;5257215;28;20053;-73
2022/08/06 13:45:25;;;;;;;1.38;0.20;;;;;;;;;;5257067;28;20124;-72
2022/08/06 13:48:09;;;;;;;1.65;0.20;;;;;;;;;;5257627;28;20025;-72
2022/08/06 13:50:44;;;;;;;2.08;0.20;;;;;;;;;;5256583;28;20037;-72
2022/08/06 13:53:15;;;;;;;0.88;0.10;;;;;;;;;;5257590;28;20024;-72
2022/08/06 13:55:46;;;;;;;1.40;0.10;;;;;;;;;;5257136;28;20017;-72
2022/08/06 13:58:17;;;;;;;0.97;0.20;;;;;;;;;;5256768;28;20027;-72
2022/08/06 14:00:48;;;;;;;1.33;0.17;;;;;;;;;;5256806;28;20633;-71
2022/08/06 14:03:20;;;;;;;1.03;0.10;;;;;;;;;;5257062;28;20443;-71
2022/08/06 14:05:51;;;;;;;0.57;0.10;;;;;;;;;;5257180;28;20294;-72
2022/08/06 14:08:23;;;;;;;0.75;0.10;;;;;;;;;;5256775;28;20067;-72
2022/08/06 14:10:54;;;;;;;1.70;0.30;;;;;;;;;;5256763;28;20448;-71
2022/08/06 14:13:25;;;;;;;1.88;0.20;;;;;;;;;;5257136;28;20021;-71
2022/08/06 14:16:00;;;;;;;1.07;0.10;;;;;;;;;;5257332;28;20025;-71
2022/08/06 14:18:31;;;;;;;1.00;0.10;;;;;;;;;;5256410;28;20329;-71
2022/08/06 14:21:02;;;;;;;1.03;0.10;;;;;;;;;;5257478;28;20057;-70
2022/08/06 14:23:34;;;;;;;2.00;0.10;;;;;;;;;;5256590;28;20307;-73
2022/08/06 14:26:07;;;;;;;1.17;0.10;;;;;;;;;;5256916;28;20025;-73
2022/08/06 14:28:38;;;;;;;0.75;0.10;;;;;;;;;;5256702;28;20071;-72
2022/08/06 14:31:09;;;;;;;1.00;0.10;;;;;;;;;;5257121;28;20033;-73
2022/08/06 14:33:41;;;;;;;1.58;0.10;;;;;;;;;;5258062;28;20483;-72
2022/08/06 14:36:12;;;;;;;1.88;0.10;;;;;;;;;;5261110;28;20036;-73
2022/08/06 14:38:45;;;;;;;1.63;0.10;;;;;;;;;;5260851;28;20009;-73
2022/08/06 14:46:56;;;;;;;1.55;0.10;;;;;;;;;;5262053;28;20119;-70
2022/08/06 14:49:27;;;;;;;3.80;0.10;;;;;;;;;;5260030;28;20096;-69
2022/08/06 14:51:58;;;;;;;1.03;0.10;;;;;;;;;;5260552;28;20291;-70
2022/08/06 14:54:30;;;;;;;0.87;0.10;;;;;;;;;;5259492;28;20298;-70
2022/08/06 14:57:02;;;;;;;0.63;0.10;;;;;;;;;;5260213;28;20049;-70
2022/08/06 14:59:33;;;;;;;0.68;0.10;;;;;;;;;;5259681;28;20443;-70
2022/08/06 15:02:04;;;;;;;2.90;0.10;;;;;;;;;;5259903;28;20103;-70
2022/08/06 15:04:36;;;;;;;3.07;0.20;;;;;;;;;;5259552;28;20021;-70
2022/08/06 15:07:07;;;;;;;2.92;0.20;;;;;;;;;;5259673;28;20355;-70
2022/08/06 15:09:39;;;;;;;2.35;0.10;;;;;;;;;;5259773;28;20052;-70
2022/08/06 15:12:10;;;;;;;1.13;0.15;;;;;;;;;;5259716;28;20025;-70
2022/08/06 15:14:41;;;;;;;0.93;0.10;;;;;;;;;;5258895;28;20525;-72
2022/08/06 15:17:12;;;;;;;0.67;0.10;;;;;;;;;;5259964;28;20474;-70
2022/08/06 15:19:44;;;;;;;1.00;0.20;;;;;;;;;;5259499;28;20278;-73
2022/08/06 15:22:15;;;;;;;2.22;0.15;;;;;;;;;;5259555;28;20197;-72
2022/08/06 15:24:46;;;;;;;0.90;0.17;;;;;;;;;;5259285;28;20102;-72
2022/08/06 15:27:20;;;;;;;1.42;0.10;;;;;;;;;;5259651;28;20263;-72
2022/08/06 15:29:51;;;;;;;1.20;0.10;;;;;;;;;;5258969;28;20053;-70
2022/08/06 15:32:22;;;;;;;1.17;0.20;;;;;;;;;;5258682;28;20052;-71
2022/08/06 15:34:53;;;;;;;1.15;0.47;;;;;;;;;;5259781;28;20016;-71